sensor_id;sensor_type;location;lat;lon;timestamp;P1;durP1;ratioP1;P2;durP2;ratioP2
80384;SDS011;69702;44.618;33.604;2023-06-26T00:00:13;12.50;;;8.45;;
80384;SDS011;69702;44.618;33.604;2023-06-26T00:02:39;11.53;;;8.47;;
80384;SDS011;69702;44.618;33.604;2023-06-26T00:05:05;11.38;;;8.38;;
80384;SDS011;69702;44.618;33.604;2023-06-26T00:07:32;12.00;;;8.52;;
80384;SDS011;69702;44.618;33.604;2023-06-26T00:10:02;11.93;;;8.23;;
80384;SDS011;69702;44.618;33.604;2023-06-26T00:12:31;12.13;;;8.05;;
80384;SDS011;69702;44.618;33.604;2023-06-26T00:14:57;12.57;;;8.25;;
80384;SDS011;69702;44.618;33.604;2023-06-26T00:17:23;11.85;;;8.57;;
80384;SDS011;69702;44.618;33.604;2023-06-26T00:19:49;10.73;;;8.00;;
80384;SDS011;69702;44.618;33.604;2023-06-26T00:22:15;12.48;;;8.40;;
80384;SDS011;69702;44.618;33.604;2023-06-26T00:24:41;12.18;;;8.82;;
80384;SDS011;69702;44.618;33.604;2023-06-26T00:27:07;11.03;;;8.60;;
80384;SDS011;69702;44.618;33.604;2023-06-26T00:29:32;12.90;;;9.05;;
80384;SDS011;69702;44.618;33.604;2023-06-26T00:31:58;13.43;;;8.93;;
80384;SDS011;69702;44.618;33.604;2023-06-26T00:34:25;13.63;;;9.23;;
80384;SDS011;69702;44.618;33.604;2023-06-26T00:36:51;12.52;;;8.93;;
80384;SDS011;69702;44.618;33.604;2023-06-26T00:39:17;12.50;;;9.15;;
80384;SDS011;69702;44.618;33.604;2023-06-26T00:41:43;12.87;;;8.67;;
80384;SDS011;69702;44.618;33.604;2023-06-26T00:44:10;13.35;;;10.02;;
80384;SDS011;69702;44.618;33.604;2023-06-26T00:46:36;13.07;;;9.45;;
80384;SDS011;69702;44.618;33.604;2023-06-26T00:49:02;13.40;;;9.55;;
80384;SDS011;69702;44.618;33.604;2023-06-26T00:51:29;11.98;;;8.65;;
80384;SDS011;69702;44.618;33.604;2023-06-26T00:53:55;13.43;;;9.88;;
80384;SDS011;69702;44.618;33.604;2023-06-26T00:56:21;12.85;;;8.80;;
80384;SDS011;69702;44.618;33.604;2023-06-26T00:58:47;12.85;;;9.27;;
80384;SDS011;69702;44.618;33.604;2023-06-26T01:01:13;11.98;;;8.90;;
80384;SDS011;69702;44.618;33.604;2023-06-26T01:03:43;11.60;;;8.60;;
80384;SDS011;69702;44.618;33.604;2023-06-26T01:06:10;11.13;;;8.70;;
80384;SDS011;69702;44.618;33.604;2023-06-26T01:08:37;10.73;;;8.20;;
80384;SDS011;69702;44.618;33.604;2023-06-26T01:11:03;15.07;;;9.15;;
80384;SDS011;69702;44.618;33.604;2023-06-26T01:13:29;12.75;;;8.90;;
80384;SDS011;69702;44.618;33.604;2023-06-26T01:15:57;13.00;;;9.37;;
80384;SDS011;69702;44.618;33.604;2023-06-26T01:18:23;14.15;;;9.10;;
80384;SDS011;69702;44.618;33.604;2023-06-26T01:20:50;11.60;;;8.48;;
80384;SDS011;69702;44.618;33.604;2023-06-26T01:23:24;12.25;;;9.38;;
80384;SDS011;69702;44.618;33.604;2023-06-26T01:28:24;12.90;;;8.88;;
80384;SDS011;69702;44.618;33.604;2023-06-26T01:30:51;12.45;;;9.05;;
80384;SDS011;69702;44.618;33.604;2023-06-26T01:33:17;12.85;;;9.27;;
80384;SDS011;69702;44.618;33.604;2023-06-26T01:35:43;12.50;;;9.50;;
80384;SDS011;69702;44.618;33.604;2023-06-26T01:38:15;15.52;;;9.73;;
80384;SDS011;69702;44.618;33.604;2023-06-26T01:40:41;11.75;;;8.85;;
80384;SDS011;69702;44.618;33.604;2023-06-26T01:45:54;12.63;;;9.53;;
80384;SDS011;69702;44.618;33.604;2023-06-26T01:48:23;12.38;;;8.82;;
80384;SDS011;69702;44.618;33.604;2023-06-26T01:50:51;12.55;;;8.50;;
80384;SDS011;69702;44.618;33.604;2023-06-26T01:53:17;12.57;;;9.23;;
80384;SDS011;69702;44.618;33.604;2023-06-26T01:58:15;13.20;;;9.73;;
80384;SDS011;69702;44.618;33.604;2023-06-26T02:00:42;12.00;;;9.23;;
80384;SDS011;69702;44.618;33.604;2023-06-26T02:03:08;12.32;;;8.40;;
80384;SDS011;69702;44.618;33.604;2023-06-26T02:05:34;13.27;;;9.90;;
80384;SDS011;69702;44.618;33.604;2023-06-26T02:08:00;12.07;;;8.85;;
80384;SDS011;69702;44.618;33.604;2023-06-26T02:10:30;11.38;;;8.50;;
80384;SDS011;69702;44.618;33.604;2023-06-26T02:12:56;12.07;;;9.32;;
80384;SDS011;69702;44.618;33.604;2023-06-26T02:15:23;11.85;;;9.63;;
80384;SDS011;69702;44.618;33.604;2023-06-26T02:17:49;11.80;;;8.30;;
80384;SDS011;69702;44.618;33.604;2023-06-26T02:20:15;11.85;;;8.73;;
80384;SDS011;69702;44.618;33.604;2023-06-26T02:22:41;12.13;;;8.95;;
80384;SDS011;69702;44.618;33.604;2023-06-26T02:25:09;12.82;;;9.00;;
80384;SDS011;69702;44.618;33.604;2023-06-26T02:27:34;13.02;;;9.15;;
80384;SDS011;69702;44.618;33.604;2023-06-26T02:30:00;12.98;;;8.80;;
80384;SDS011;69702;44.618;33.604;2023-06-26T02:32:29;12.85;;;9.07;;
80384;SDS011;69702;44.618;33.604;2023-06-26T02:34:55;11.67;;;8.40;;
80384;SDS011;69702;44.618;33.604;2023-06-26T02:37:20;11.75;;;8.50;;
80384;SDS011;69702;44.618;33.604;2023-06-26T02:39:47;10.97;;;8.43;;
80384;SDS011;69702;44.618;33.604;2023-06-26T02:42:13;12.75;;;9.68;;
80384;SDS011;69702;44.618;33.604;2023-06-26T02:44:38;13.45;;;9.15;;
80384;SDS011;69702;44.618;33.604;2023-06-26T02:47:04;13.18;;;10.10;;
80384;SDS011;69702;44.618;33.604;2023-06-26T02:49:31;14.90;;;10.63;;
80384;SDS011;69702;44.618;33.604;2023-06-26T02:51:57;13.30;;;9.90;;
80384;SDS011;69702;44.618;33.604;2023-06-26T02:54:28;12.57;;;9.68;;
80384;SDS011;69702;44.618;33.604;2023-06-26T02:57:00;13.75;;;9.48;;
80384;SDS011;69702;44.618;33.604;2023-06-26T02:59:28;13.13;;;9.10;;
80384;SDS011;69702;44.618;33.604;2023-06-26T03:01:55;13.20;;;10.20;;
80384;SDS011;69702;44.618;33.604;2023-06-26T03:04:32;16.42;;;10.60;;
80384;SDS011;69702;44.618;33.604;2023-06-26T03:07:03;15.55;;;10.23;;
80384;SDS011;69702;44.618;33.604;2023-06-26T03:09:29;15.60;;;10.27;;
80384;SDS011;69702;44.618;33.604;2023-06-26T03:11:55;13.52;;;10.32;;
80384;SDS011;69702;44.618;33.604;2023-06-26T03:14:21;14.23;;;8.90;;
80384;SDS011;69702;44.618;33.604;2023-06-26T03:16:46;15.93;;;9.33;;
80384;SDS011;69702;44.618;33.604;2023-06-26T03:19:12;16.08;;;9.73;;
80384;SDS011;69702;44.618;33.604;2023-06-26T03:21:58;12.98;;;9.25;;
80384;SDS011;69702;44.618;33.604;2023-06-26T03:24:24;14.60;;;9.38;;
80384;SDS011;69702;44.618;33.604;2023-06-26T03:26:50;14.73;;;10.40;;
80384;SDS011;69702;44.618;33.604;2023-06-26T03:29:16;11.82;;;8.60;;
80384;SDS011;69702;44.618;33.604;2023-06-26T03:31:42;12.88;;;8.32;;
80384;SDS011;69702;44.618;33.604;2023-06-26T03:34:08;12.07;;;8.70;;
80384;SDS011;69702;44.618;33.604;2023-06-26T03:36:34;15.00;;;8.07;;
80384;SDS011;69702;44.618;33.604;2023-06-26T03:39:01;14.95;;;8.98;;
80384;SDS011;69702;44.618;33.604;2023-06-26T03:41:27;14.98;;;9.20;;
80384;SDS011;69702;44.618;33.604;2023-06-26T03:43:53;13.87;;;9.67;;
80384;SDS011;69702;44.618;33.604;2023-06-26T03:46:22;13.57;;;8.80;;
80384;SDS011;69702;44.618;33.604;2023-06-26T03:48:48;13.15;;;8.10;;
80384;SDS011;69702;44.618;33.604;2023-06-26T03:51:14;13.38;;;8.75;;
80384;SDS011;69702;44.618;33.604;2023-06-26T03:53:40;11.80;;;8.83;;
80384;SDS011;69702;44.618;33.604;2023-06-26T03:56:06;10.57;;;7.70;;
80384;SDS011;69702;44.618;33.604;2023-06-26T03:58:32;13.18;;;8.20;;
80384;SDS011;69702;44.618;33.604;2023-06-26T04:00:57;14.37;;;8.53;;
80384;SDS011;69702;44.618;33.604;2023-06-26T04:03:24;12.27;;;7.90;;
80384;SDS011;69702;44.618;33.604;2023-06-26T04:05:50;12.07;;;7.45;;
80384;SDS011;69702;44.618;33.604;2023-06-26T04:08:16;12.88;;;8.50;;
80384;SDS011;69702;44.618;33.604;2023-06-26T04:10:42;15.80;;;9.48;;
80384;SDS011;69702;44.618;33.604;2023-06-26T04:13:11;13.20;;;8.85;;
80384;SDS011;69702;44.618;33.604;2023-06-26T04:15:37;15.23;;;9.53;;
80384;SDS011;69702;44.618;33.604;2023-06-26T04:18:03;12.70;;;9.05;;
80384;SDS011;69702;44.618;33.604;2023-06-26T04:20:28;13.70;;;8.48;;
80384;SDS011;69702;44.618;33.604;2023-06-26T04:22:54;14.95;;;9.18;;
80384;SDS011;69702;44.618;33.604;2023-06-26T04:25:20;10.33;;;8.07;;
80384;SDS011;69702;44.618;33.604;2023-06-26T04:27:46;12.27;;;8.43;;
80384;SDS011;69702;44.618;33.604;2023-06-26T04:30:12;12.55;;;8.25;;
80384;SDS011;69702;44.618;33.604;2023-06-26T04:32:38;11.15;;;7.97;;
80384;SDS011;69702;44.618;33.604;2023-06-26T04:35:04;11.00;;;7.80;;
80384;SDS011;69702;44.618;33.604;2023-06-26T04:37:30;12.88;;;7.72;;
80384;SDS011;69702;44.618;33.604;2023-06-26T04:39:55;10.33;;;7.10;;
80384;SDS011;69702;44.618;33.604;2023-06-26T04:42:21;11.23;;;6.82;;
80384;SDS011;69702;44.618;33.604;2023-06-26T04:44:47;11.32;;;7.00;;
80384;SDS011;69702;44.618;33.604;2023-06-26T04:47:13;10.10;;;6.83;;
80384;SDS011;69702;44.618;33.604;2023-06-26T04:49:41;12.93;;;6.97;;
80384;SDS011;69702;44.618;33.604;2023-06-26T04:52:11;11.18;;;7.75;;
80384;SDS011;69702;44.618;33.604;2023-06-26T04:54:39;9.25;;;6.20;;
80384;SDS011;69702;44.618;33.604;2023-06-26T04:57:05;11.80;;;7.10;;
80384;SDS011;69702;44.618;33.604;2023-06-26T04:59:31;11.25;;;6.75;;
80384;SDS011;69702;44.618;33.604;2023-06-26T05:01:57;14.40;;;7.28;;
80384;SDS011;69702;44.618;33.604;2023-06-26T05:04:22;10.20;;;6.97;;
80384;SDS011;69702;44.618;33.604;2023-06-26T05:06:48;10.50;;;6.60;;
80384;SDS011;69702;44.618;33.604;2023-06-26T05:09:14;9.80;;;6.97;;
80384;SDS011;69702;44.618;33.604;2023-06-26T05:11:40;11.97;;;6.20;;
80384;SDS011;69702;44.618;33.604;2023-06-26T05:14:05;10.65;;;6.07;;
80384;SDS011;69702;44.618;33.604;2023-06-26T05:16:35;15.07;;;6.87;;
80384;SDS011;69702;44.618;33.604;2023-06-26T05:19:01;12.02;;;6.43;;
80384;SDS011;69702;44.618;33.604;2023-06-26T05:21:27;11.35;;;6.82;;
80384;SDS011;69702;44.618;33.604;2023-06-26T05:23:54;9.63;;;6.30;;
80384;SDS011;69702;44.618;33.604;2023-06-26T05:26:21;9.20;;;6.53;;
80384;SDS011;69702;44.618;33.604;2023-06-26T05:28:47;11.52;;;7.32;;
80384;SDS011;69702;44.618;33.604;2023-06-26T05:31:17;10.50;;;6.65;;
80384;SDS011;69702;44.618;33.604;2023-06-26T05:33:43;9.48;;;5.80;;
80384;SDS011;69702;44.618;33.604;2023-06-26T05:36:10;8.32;;;5.95;;
80384;SDS011;69702;44.618;33.604;2023-06-26T05:38:37;9.43;;;6.57;;
80384;SDS011;69702;44.618;33.604;2023-06-26T05:41:03;7.75;;;5.78;;
80384;SDS011;69702;44.618;33.604;2023-06-26T05:43:29;10.30;;;6.75;;
80384;SDS011;69702;44.618;33.604;2023-06-26T05:45:56;9.47;;;7.50;;
80384;SDS011;69702;44.618;33.604;2023-06-26T05:48:21;11.02;;;7.90;;
80384;SDS011;69702;44.618;33.604;2023-06-26T05:50:47;10.15;;;6.28;;
80384;SDS011;69702;44.618;33.604;2023-06-26T05:53:13;20.87;;;15.67;;
80384;SDS011;69702;44.618;33.604;2023-06-26T05:55:39;19.85;;;14.68;;
80384;SDS011;69702;44.618;33.604;2023-06-26T05:58:07;8.00;;;6.32;;
80384;SDS011;69702;44.618;33.604;2023-06-26T06:00:33;13.73;;;11.32;;
80384;SDS011;69702;44.618;33.604;2023-06-26T06:02:58;10.00;;;7.70;;
80384;SDS011;69702;44.618;33.604;2023-06-26T06:05:24;12.27;;;9.25;;
80384;SDS011;69702;44.618;33.604;2023-06-26T06:07:50;12.33;;;9.07;;
80384;SDS011;69702;44.618;33.604;2023-06-26T06:10:16;9.40;;;7.30;;
80384;SDS011;69702;44.618;33.604;2023-06-26T06:12:42;10.47;;;7.73;;
80384;SDS011;69702;44.618;33.604;2023-06-26T06:15:07;11.02;;;8.20;;
80384;SDS011;69702;44.618;33.604;2023-06-26T06:17:33;10.00;;;7.68;;
80384;SDS011;69702;44.618;33.604;2023-06-26T06:19:59;8.90;;;7.83;;
80384;SDS011;69702;44.618;33.604;2023-06-26T06:22:25;9.95;;;8.15;;
80384;SDS011;69702;44.618;33.604;2023-06-26T06:24:51;9.10;;;6.80;;
80384;SDS011;69702;44.618;33.604;2023-06-26T06:27:17;11.77;;;7.47;;
80384;SDS011;69702;44.618;33.604;2023-06-26T06:29:43;10.77;;;6.75;;
80384;SDS011;69702;44.618;33.604;2023-06-26T06:32:08;11.53;;;6.77;;
80384;SDS011;69702;44.618;33.604;2023-06-26T06:34:34;10.52;;;6.90;;
80384;SDS011;69702;44.618;33.604;2023-06-26T06:37:01;8.30;;;6.40;;
80384;SDS011;69702;44.618;33.604;2023-06-26T06:39:27;9.90;;;6.40;;
80384;SDS011;69702;44.618;33.604;2023-06-26T06:41:53;9.90;;;6.20;;
80384;SDS011;69702;44.618;33.604;2023-06-26T06:44:19;10.60;;;7.03;;
80384;SDS011;69702;44.618;33.604;2023-06-26T06:46:44;7.87;;;6.53;;
80384;SDS011;69702;44.618;33.604;2023-06-26T06:49:10;9.63;;;5.80;;
80384;SDS011;69702;44.618;33.604;2023-06-26T06:51:36;8.93;;;6.22;;
80384;SDS011;69702;44.618;33.604;2023-06-26T06:54:02;8.17;;;6.77;;
80384;SDS011;69702;44.618;33.604;2023-06-26T06:56:27;8.50;;;6.13;;
80384;SDS011;69702;44.618;33.604;2023-06-26T06:58:53;7.57;;;6.03;;
80384;SDS011;69702;44.618;33.604;2023-06-26T07:01:19;12.63;;;6.00;;
80384;SDS011;69702;44.618;33.604;2023-06-26T07:03:45;14.80;;;7.97;;
80384;SDS011;69702;44.618;33.604;2023-06-26T07:06:11;12.73;;;8.00;;
80384;SDS011;69702;44.618;33.604;2023-06-26T07:08:36;9.80;;;6.97;;
80384;SDS011;69702;44.618;33.604;2023-06-26T07:11:04;12.88;;;7.30;;
80384;SDS011;69702;44.618;33.604;2023-06-26T07:13:30;12.70;;;9.50;;
80384;SDS011;69702;44.618;33.604;2023-06-26T07:15:56;9.97;;;7.03;;
80384;SDS011;69702;44.618;33.604;2023-06-26T07:18:21;9.25;;;6.47;;
80384;SDS011;69702;44.618;33.604;2023-06-26T07:20:47;10.47;;;7.07;;
80384;SDS011;69702;44.618;33.604;2023-06-26T07:23:13;9.77;;;6.60;;
80384;SDS011;69702;44.618;33.604;2023-06-26T07:25:38;13.13;;;6.87;;
80384;SDS011;69702;44.618;33.604;2023-06-26T07:28:09;9.38;;;5.90;;
80384;SDS011;69702;44.618;33.604;2023-06-26T07:30:35;12.25;;;9.20;;
80384;SDS011;69702;44.618;33.604;2023-06-26T07:33:00;6.83;;;5.50;;
80384;SDS011;69702;44.618;33.604;2023-06-26T07:35:26;9.57;;;6.75;;
80384;SDS011;69702;44.618;33.604;2023-06-26T07:37:53;9.00;;;6.60;;
80384;SDS011;69702;44.618;33.604;2023-06-26T07:40:19;11.30;;;7.27;;
80384;SDS011;69702;44.618;33.604;2023-06-26T07:42:45;8.23;;;5.20;;
80384;SDS011;69702;44.618;33.604;2023-06-26T07:45:12;8.65;;;6.50;;
80384;SDS011;69702;44.618;33.604;2023-06-26T07:47:38;10.75;;;6.15;;
80384;SDS011;69702;44.618;33.604;2023-06-26T07:50:04;15.18;;;6.07;;
80384;SDS011;69702;44.618;33.604;2023-06-26T07:52:30;7.60;;;5.47;;
80384;SDS011;69702;44.618;33.604;2023-06-26T07:54:56;9.30;;;5.32;;
80384;SDS011;69702;44.618;33.604;2023-06-26T07:57:22;13.27;;;5.30;;
80384;SDS011;69702;44.618;33.604;2023-06-26T07:59:48;11.33;;;5.10;;
80384;SDS011;69702;44.618;33.604;2023-06-26T08:02:14;8.68;;;4.90;;
80384;SDS011;69702;44.618;33.604;2023-06-26T08:04:40;7.10;;;4.40;;
80384;SDS011;69702;44.618;33.604;2023-06-26T08:07:05;7.05;;;4.38;;
80384;SDS011;69702;44.618;33.604;2023-06-26T08:09:31;8.20;;;5.20;;
80384;SDS011;69702;44.618;33.604;2023-06-26T08:11:57;7.65;;;5.05;;
80384;SDS011;69702;44.618;33.604;2023-06-26T08:14:23;8.48;;;5.00;;
80384;SDS011;69702;44.618;33.604;2023-06-26T08:16:50;7.32;;;4.20;;
80384;SDS011;69702;44.618;33.604;2023-06-26T08:19:16;6.82;;;4.47;;
80384;SDS011;69702;44.618;33.604;2023-06-26T08:21:42;10.48;;;5.43;;
80384;SDS011;69702;44.618;33.604;2023-06-26T08:24:08;10.77;;;5.85;;
80384;SDS011;69702;44.618;33.604;2023-06-26T08:26:35;9.45;;;5.15;;
80384;SDS011;69702;44.618;33.604;2023-06-26T08:29:01;7.57;;;5.18;;
80384;SDS011;69702;44.618;33.604;2023-06-26T08:31:33;7.10;;;5.55;;
80384;SDS011;69702;44.618;33.604;2023-06-26T08:34:00;8.83;;;5.23;;
80384;SDS011;69702;44.618;33.604;2023-06-26T08:36:26;6.95;;;5.15;;
80384;SDS011;69702;44.618;33.604;2023-06-26T08:38:51;7.35;;;4.45;;
80384;SDS011;69702;44.618;33.604;2023-06-26T08:41:17;7.73;;;5.33;;
80384;SDS011;69702;44.618;33.604;2023-06-26T08:43:43;5.97;;;4.57;;
80384;SDS011;69702;44.618;33.604;2023-06-26T08:46:09;12.67;;;4.93;;
80384;SDS011;69702;44.618;33.604;2023-06-26T08:48:35;8.20;;;5.00;;
80384;SDS011;69702;44.618;33.604;2023-06-26T08:51:07;11.52;;;5.60;;
80384;SDS011;69702;44.618;33.604;2023-06-26T08:53:43;9.85;;;6.22;;
80384;SDS011;69702;44.618;33.604;2023-06-26T08:56:09;8.90;;;6.60;;
80384;SDS011;69702;44.618;33.604;2023-06-26T08:58:36;12.25;;;6.50;;
80384;SDS011;69702;44.618;33.604;2023-06-26T09:01:04;8.18;;;5.57;;
80384;SDS011;69702;44.618;33.604;2023-06-26T09:03:30;8.18;;;4.88;;
80384;SDS011;69702;44.618;33.604;2023-06-26T09:05:56;6.97;;;5.57;;
80384;SDS011;69702;44.618;33.604;2023-06-26T09:08:21;10.10;;;6.78;;
80384;SDS011;69702;44.618;33.604;2023-06-26T09:10:47;8.07;;;5.50;;
80384;SDS011;69702;44.618;33.604;2023-06-26T09:13:13;7.82;;;5.38;;
80384;SDS011;69702;44.618;33.604;2023-06-26T09:15:42;9.43;;;4.75;;
80384;SDS011;69702;44.618;33.604;2023-06-26T09:18:08;7.40;;;5.80;;
80384;SDS011;69702;44.618;33.604;2023-06-26T09:20:34;7.60;;;5.60;;
80384;SDS011;69702;44.618;33.604;2023-06-26T09:23:00;8.10;;;4.80;;
80384;SDS011;69702;44.618;33.604;2023-06-26T09:25:26;8.20;;;4.80;;
80384;SDS011;69702;44.618;33.604;2023-06-26T09:27:52;7.53;;;6.10;;
80384;SDS011;69702;44.618;33.604;2023-06-26T09:30:18;7.10;;;4.35;;
80384;SDS011;69702;44.618;33.604;2023-06-26T09:32:44;9.47;;;5.03;;
80384;SDS011;69702;44.618;33.604;2023-06-26T09:35:10;7.03;;;5.78;;
80384;SDS011;69702;44.618;33.604;2023-06-26T09:37:36;6.53;;;5.10;;
80384;SDS011;69702;44.618;33.604;2023-06-26T09:40:02;6.60;;;4.68;;
80384;SDS011;69702;44.618;33.604;2023-06-26T09:42:30;7.00;;;5.03;;
80384;SDS011;69702;44.618;33.604;2023-06-26T09:44:55;9.63;;;4.70;;
80384;SDS011;69702;44.618;33.604;2023-06-26T09:47:21;13.07;;;5.72;;
80384;SDS011;69702;44.618;33.604;2023-06-26T09:49:47;7.63;;;5.13;;
80384;SDS011;69702;44.618;33.604;2023-06-26T09:52:17;7.80;;;4.60;;
80384;SDS011;69702;44.618;33.604;2023-06-26T09:54:43;11.85;;;5.55;;
80384;SDS011;69702;44.618;33.604;2023-06-26T09:57:12;17.60;;;7.32;;
80384;SDS011;69702;44.618;33.604;2023-06-26T09:59:42;8.32;;;4.40;;
80384;SDS011;69702;44.618;33.604;2023-06-26T10:02:09;7.03;;;4.82;;
80384;SDS011;69702;44.618;33.604;2023-06-26T10:04:37;6.60;;;4.53;;
80384;SDS011;69702;44.618;33.604;2023-06-26T10:07:08;8.50;;;4.63;;
80384;SDS011;69702;44.618;33.604;2023-06-26T10:09:34;6.03;;;4.70;;
80384;SDS011;69702;44.618;33.604;2023-06-26T10:12:02;6.75;;;4.43;;
80384;SDS011;69702;44.618;33.604;2023-06-26T10:14:35;6.38;;;4.80;;
80384;SDS011;69702;44.618;33.604;2023-06-26T10:17:07;6.90;;;4.70;;
80384;SDS011;69702;44.618;33.604;2023-06-26T10:19:35;5.72;;;4.50;;
80384;SDS011;69702;44.618;33.604;2023-06-26T10:22:02;7.85;;;5.03;;
80384;SDS011;69702;44.618;33.604;2023-06-26T10:24:29;11.60;;;5.55;;
80384;SDS011;69702;44.618;33.604;2023-06-26T10:26:58;6.60;;;4.70;;
80384;SDS011;69702;44.618;33.604;2023-06-26T10:29:24;8.48;;;4.68;;
80384;SDS011;69702;44.618;33.604;2023-06-26T10:31:51;10.05;;;5.10;;
80384;SDS011;69702;44.618;33.604;2023-06-26T10:34:18;10.10;;;5.68;;
80384;SDS011;69702;44.618;33.604;2023-06-26T10:36:44;8.00;;;4.72;;
80384;SDS011;69702;44.618;33.604;2023-06-26T10:39:09;8.90;;;5.15;;
80384;SDS011;69702;44.618;33.604;2023-06-26T10:41:39;11.37;;;5.30;;
80384;SDS011;69702;44.618;33.604;2023-06-26T10:44:12;8.35;;;4.80;;
80384;SDS011;69702;44.618;33.604;2023-06-26T10:46:53;9.85;;;4.82;;
80384;SDS011;69702;44.618;33.604;2023-06-26T10:49:20;8.82;;;5.13;;
80384;SDS011;69702;44.618;33.604;2023-06-26T10:51:47;7.75;;;4.57;;
80384;SDS011;69702;44.618;33.604;2023-06-26T10:54:17;7.95;;;5.75;;
80384;SDS011;69702;44.618;33.604;2023-06-26T10:56:48;8.60;;;5.82;;
80384;SDS011;69702;44.618;33.604;2023-06-26T10:59:15;11.73;;;5.35;;
80384;SDS011;69702;44.618;33.604;2023-06-26T11:01:41;12.15;;;6.00;;
80384;SDS011;69702;44.618;33.604;2023-06-26T11:04:10;11.13;;;6.80;;
80384;SDS011;69702;44.618;33.604;2023-06-26T11:06:37;7.15;;;4.78;;
80384;SDS011;69702;44.618;33.604;2023-06-26T11:09:14;8.45;;;6.22;;
80384;SDS011;69702;44.618;33.604;2023-06-26T11:14:25;8.55;;;5.90;;
80384;SDS011;69702;44.618;33.604;2023-06-26T11:16:52;8.10;;;5.28;;
80384;SDS011;69702;44.618;33.604;2023-06-26T11:19:18;9.00;;;5.82;;
80384;SDS011;69702;44.618;33.604;2023-06-26T11:21:44;9.20;;;5.78;;
80384;SDS011;69702;44.618;33.604;2023-06-26T11:24:11;8.77;;;5.05;;
80384;SDS011;69702;44.618;33.604;2023-06-26T11:26:38;13.38;;;5.68;;
80384;SDS011;69702;44.618;33.604;2023-06-26T11:29:04;14.85;;;6.65;;
80384;SDS011;69702;44.618;33.604;2023-06-26T11:31:30;12.35;;;4.60;;
80384;SDS011;69702;44.618;33.604;2023-06-26T11:34:01;8.30;;;5.25;;
80384;SDS011;69702;44.618;33.604;2023-06-26T11:36:27;11.05;;;6.07;;
80384;SDS011;69702;44.618;33.604;2023-06-26T11:38:57;8.93;;;5.10;;
80384;SDS011;69702;44.618;33.604;2023-06-26T11:41:23;9.40;;;5.72;;
80384;SDS011;69702;44.618;33.604;2023-06-26T11:43:50;11.85;;;4.60;;
80384;SDS011;69702;44.618;33.604;2023-06-26T11:46:17;9.85;;;4.43;;
80384;SDS011;69702;44.618;33.604;2023-06-26T11:48:43;8.65;;;5.00;;
80384;SDS011;69702;44.618;33.604;2023-06-26T11:51:12;10.80;;;5.83;;
80384;SDS011;69702;44.618;33.604;2023-06-26T11:53:40;9.07;;;5.28;;
80384;SDS011;69702;44.618;33.604;2023-06-26T11:56:08;9.85;;;5.78;;
80384;SDS011;69702;44.618;33.604;2023-06-26T11:58:34;11.80;;;5.38;;
80384;SDS011;69702;44.618;33.604;2023-06-26T12:01:00;10.57;;;5.70;;
80384;SDS011;69702;44.618;33.604;2023-06-26T12:03:26;9.48;;;5.63;;
80384;SDS011;69702;44.618;33.604;2023-06-26T12:05:51;9.32;;;5.60;;
80384;SDS011;69702;44.618;33.604;2023-06-26T12:08:17;12.33;;;5.93;;
80384;SDS011;69702;44.618;33.604;2023-06-26T12:10:44;12.57;;;6.03;;
80384;SDS011;69702;44.618;33.604;2023-06-26T12:13:10;10.82;;;5.55;;
80384;SDS011;69702;44.618;33.604;2023-06-26T12:15:36;8.63;;;5.73;;
80384;SDS011;69702;44.618;33.604;2023-06-26T12:18:11;10.10;;;6.65;;
80384;SDS011;69702;44.618;33.604;2023-06-26T12:20:39;12.27;;;8.35;;
80384;SDS011;69702;44.618;33.604;2023-06-26T12:23:11;16.23;;;11.18;;
80384;SDS011;69702;44.618;33.604;2023-06-26T12:25:36;12.07;;;7.90;;
80384;SDS011;69702;44.618;33.604;2023-06-26T12:28:02;12.32;;;7.05;;
80384;SDS011;69702;44.618;33.604;2023-06-26T12:30:28;13.63;;;9.10;;
80384;SDS011;69702;44.618;33.604;2023-06-26T12:32:54;14.00;;;8.70;;
80384;SDS011;69702;44.618;33.604;2023-06-26T12:35:20;18.33;;;12.60;;
80384;SDS011;69702;44.618;33.604;2023-06-26T12:37:46;13.32;;;8.75;;
80384;SDS011;69702;44.618;33.604;2023-06-26T12:40:16;15.00;;;9.97;;
80384;SDS011;69702;44.618;33.604;2023-06-26T12:42:45;14.38;;;9.93;;
80384;SDS011;69702;44.618;33.604;2023-06-26T12:45:11;14.50;;;9.38;;
80384;SDS011;69702;44.618;33.604;2023-06-26T12:47:38;23.55;;;16.83;;
80384;SDS011;69702;44.618;33.604;2023-06-26T12:50:06;14.87;;;9.40;;
80384;SDS011;69702;44.618;33.604;2023-06-26T12:52:32;15.02;;;9.50;;
80384;SDS011;69702;44.618;33.604;2023-06-26T12:54:58;14.32;;;9.60;;
80384;SDS011;69702;44.618;33.604;2023-06-26T12:57:24;12.77;;;9.70;;
80384;SDS011;69702;44.618;33.604;2023-06-26T12:59:50;14.30;;;10.07;;
80384;SDS011;69702;44.618;33.604;2023-06-26T13:02:15;19.57;;;13.03;;
80384;SDS011;69702;44.618;33.604;2023-06-26T13:04:41;15.65;;;10.73;;
80384;SDS011;69702;44.618;33.604;2023-06-26T13:07:09;18.13;;;10.07;;
80384;SDS011;69702;44.618;33.604;2023-06-26T13:09:36;20.58;;;13.05;;
80384;SDS011;69702;44.618;33.604;2023-06-26T13:12:02;15.27;;;9.77;;
80384;SDS011;69702;44.618;33.604;2023-06-26T13:14:29;15.75;;;10.18;;
80384;SDS011;69702;44.618;33.604;2023-06-26T13:16:55;18.05;;;10.32;;
80384;SDS011;69702;44.618;33.604;2023-06-26T13:19:20;18.40;;;12.17;;
80384;SDS011;69702;44.618;33.604;2023-06-26T13:21:47;19.70;;;12.90;;
80384;SDS011;69702;44.618;33.604;2023-06-26T13:24:12;19.13;;;11.30;;
80384;SDS011;69702;44.618;33.604;2023-06-26T13:26:38;17.33;;;10.38;;
80384;SDS011;69702;44.618;33.604;2023-06-26T13:29:04;14.90;;;10.40;;
80384;SDS011;69702;44.618;33.604;2023-06-26T13:31:31;17.30;;;10.63;;
80384;SDS011;69702;44.618;33.604;2023-06-26T13:33:57;14.50;;;9.88;;
80384;SDS011;69702;44.618;33.604;2023-06-26T13:36:23;14.93;;;10.02;;
80384;SDS011;69702;44.618;33.604;2023-06-26T13:38:50;15.77;;;10.85;;
80384;SDS011;69702;44.618;33.604;2023-06-26T13:41:24;16.27;;;10.57;;
80384;SDS011;69702;44.618;33.604;2023-06-26T13:43:50;14.95;;;10.82;;
80384;SDS011;69702;44.618;33.604;2023-06-26T13:46:16;15.50;;;10.40;;
80384;SDS011;69702;44.618;33.604;2023-06-26T13:48:43;14.98;;;9.57;;
80384;SDS011;69702;44.618;33.604;2023-06-26T13:51:09;11.98;;;7.90;;
80384;SDS011;69702;44.618;33.604;2023-06-26T13:53:35;11.93;;;6.73;;
80384;SDS011;69702;44.618;33.604;2023-06-26T13:56:01;10.80;;;6.82;;
80384;SDS011;69702;44.618;33.604;2023-06-26T13:58:27;13.17;;;6.60;;
80384;SDS011;69702;44.618;33.604;2023-06-26T14:00:54;11.55;;;5.70;;
80384;SDS011;69702;44.618;33.604;2023-06-26T14:03:20;10.00;;;5.65;;
80384;SDS011;69702;44.618;33.604;2023-06-26T14:05:45;11.37;;;6.50;;
80384;SDS011;69702;44.618;33.604;2023-06-26T14:08:11;9.60;;;6.28;;
80384;SDS011;69702;44.618;33.604;2023-06-26T14:10:37;9.80;;;6.37;;
80384;SDS011;69702;44.618;33.604;2023-06-26T14:13:03;11.65;;;6.55;;
80384;SDS011;69702;44.618;33.604;2023-06-26T14:15:29;9.48;;;6.22;;
80384;SDS011;69702;44.618;33.604;2023-06-26T14:17:55;11.50;;;6.47;;
80384;SDS011;69702;44.618;33.604;2023-06-26T14:20:21;18.57;;;12.27;;
80384;SDS011;69702;44.618;33.604;2023-06-26T14:22:48;12.27;;;6.82;;
80384;SDS011;69702;44.618;33.604;2023-06-26T14:25:14;11.55;;;5.70;;
80384;SDS011;69702;44.618;33.604;2023-06-26T14:27:40;16.48;;;6.97;;
80384;SDS011;69702;44.618;33.604;2023-06-26T14:30:06;11.80;;;6.57;;